createdAt,value
2022-12-31T00:00:07.293Z,2.10
2022-12-31T00:02:34.116Z,2.00
2022-12-31T00:05:00.943Z,2.06
2022-12-31T00:07:27.595Z,2.34
2022-12-31T00:09:54.296Z,2.59
2022-12-31T00:12:21.034Z,2.74
2022-12-31T00:14:47.765Z,2.71
2022-12-31T00:17:14.576Z,2.96
2022-12-31T00:19:41.209Z,3.08
2022-12-31T00:22:07.837Z,2.92
2022-12-31T00:24:35.962Z,2.59
2022-12-31T00:27:02.717Z,2.54
2022-12-31T00:29:29.311Z,2.57
2022-12-31T00:31:55.971Z,2.58
2022-12-31T00:34:22.725Z,2.47
2022-12-31T00:36:49.452Z,2.57
2022-12-31T00:39:16.181Z,2.59
2022-12-31T00:41:44.182Z,2.60
2022-12-31T00:44:13.969Z,2.53
2022-12-31T00:49:06.420Z,2.29
2022-12-31T00:51:33.119Z,2.37
2022-12-31T00:53:59.826Z,2.35
2022-12-31T00:56:28.360Z,2.37
2022-12-31T00:58:55.000Z,2.29
2022-12-31T01:01:23.526Z,2.40
2022-12-31T01:03:51.683Z,2.40
2022-12-31T01:06:18.520Z,2.28
2022-12-31T01:08:45.332Z,1.76
2022-12-31T01:11:24.537Z,1.83
2022-12-31T01:13:56.032Z,1.74
2022-12-31T01:16:34.690Z,1.64
2022-12-31T01:19:04.261Z,1.90
2022-12-31T01:21:31.069Z,1.51
2022-12-31T01:23:58.575Z,1.62
2022-12-31T01:26:25.273Z,1.98
2022-12-31T01:28:51.889Z,2.12
2022-12-31T01:31:19.511Z,2.36
2022-12-31T01:33:46.199Z,2.45
2022-12-31T01:36:20.350Z,2.34
2022-12-31T01:38:51.973Z,2.33
2022-12-31T01:41:20.493Z,2.43
2022-12-31T01:43:48.395Z,2.32
2022-12-31T01:46:40.202Z,2.45
2022-12-31T01:49:12.804Z,2.42
2022-12-31T01:51:39.423Z,2.28
2022-12-31T01:54:07.781Z,2.22
2022-12-31T01:56:34.441Z,1.96
2022-12-31T01:59:01.417Z,2.14
2022-12-31T02:01:29.398Z,2.02
2022-12-31T02:03:56.423Z,2.05
2022-12-31T02:06:43.574Z,2.09
2022-12-31T02:09:10.753Z,2.00
2022-12-31T02:11:38.140Z,1.83
2022-12-31T02:14:08.876Z,1.81
2022-12-31T02:17:03.464Z,1.90
2022-12-31T02:19:48.619Z,1.34
2022-12-31T02:22:21.214Z,1.82
2022-12-31T02:25:18.957Z,1.86
2022-12-31T02:27:51.166Z,1.32
2022-12-31T02:30:22.064Z,1.02
2022-12-31T02:33:25.299Z,1.48
2022-12-31T02:35:55.462Z,1.79
2022-12-31T02:38:27.436Z,2.02
2022-12-31T02:40:54.435Z,1.99
2022-12-31T02:43:21.183Z,2.21
2022-12-31T02:45:50.660Z,2.35
2022-12-31T02:48:52.678Z,2.46
2022-12-31T02:51:33.314Z,2.28
2022-12-31T02:54:13.535Z,1.72
2022-12-31T02:57:11.780Z,1.63
2022-12-31T03:00:01.430Z,1.75
2022-12-31T03:02:28.467Z,1.86
2022-12-31T03:04:56.213Z,1.77
2022-12-31T03:07:23.758Z,1.69
2022-12-31T03:09:50.617Z,1.53
2022-12-31T03:12:36.171Z,1.60
2022-12-31T03:15:06.726Z,1.52
2022-12-31T03:17:34.038Z,1.45
2022-12-31T03:20:19.174Z,1.87
2022-12-31T03:22:47.168Z,2.08
2022-12-31T03:25:34.310Z,2.15
2022-12-31T03:28:02.580Z,2.10
2022-12-31T03:30:29.616Z,1.92
2022-12-31T03:32:56.448Z,1.80
2022-12-31T03:35:23.186Z,1.87
2022-12-31T03:37:50.316Z,2.11
2022-12-31T03:40:17.188Z,2.13
2022-12-31T03:42:43.811Z,1.59
2022-12-31T03:45:10.888Z,1.67
2022-12-31T03:47:37.470Z,1.77
2022-12-31T03:50:05.263Z,1.67
2022-12-31T03:52:31.889Z,1.30
2022-12-31T03:54:58.509Z,1.53
2022-12-31T03:57:25.261Z,1.63
2022-12-31T03:59:51.880Z,1.69
2022-12-31T04:02:20.916Z,1.71
2022-12-31T04:04:51.448Z,1.63
2022-12-31T04:07:18.050Z,1.73
2022-12-31T04:09:44.690Z,1.39
2022-12-31T04:12:11.407Z,1.48
2022-12-31T04:14:38.047Z,1.55
2022-12-31T04:17:04.744Z,1.47
2022-12-31T04:19:31.372Z,1.37
2022-12-31T04:21:57.994Z,1.25
2022-12-31T04:24:24.688Z,1.32
2022-12-31T04:26:51.381Z,1.05
2022-12-31T04:29:18.124Z,1.11
2022-12-31T04:31:44.757Z,1.32
2022-12-31T04:34:11.404Z,0.93
2022-12-31T04:36:38.140Z,1.20
2022-12-31T04:39:04.797Z,1.26
2022-12-31T04:41:31.344Z,1.53
2022-12-31T04:43:58.670Z,1.31
2022-12-31T04:46:32.595Z,1.27
2022-12-31T04:48:59.077Z,1.39
2022-12-31T04:51:26.258Z,1.39
2022-12-31T04:53:53.142Z,1.18
2022-12-31T04:56:19.865Z,0.52
2022-12-31T04:58:46.674Z,0.27
2022-12-31T05:01:13.490Z,0.05
2022-12-31T05:03:40.116Z,-0.08
2022-12-31T05:06:14.616Z,0.38
2022-12-31T05:08:41.440Z,0.71
2022-12-31T05:11:08.190Z,1.04
2022-12-31T05:13:34.975Z,1.11
2022-12-31T05:16:02.269Z,1.10
2022-12-31T05:18:30.282Z,1.28
2022-12-31T05:20:56.939Z,1.27
2022-12-31T05:23:23.619Z,1.13
2022-12-31T05:25:50.499Z,1.08
2022-12-31T05:28:17.289Z,1.17
2022-12-31T05:30:44.175Z,1.12
2022-12-31T05:33:11.004Z,1.19
2022-12-31T05:35:37.582Z,1.27
2022-12-31T05:38:04.288Z,1.35
2022-12-31T05:40:31.006Z,1.12
2022-12-31T05:42:57.706Z,1.12
2022-12-31T05:45:30.378Z,1.22
2022-12-31T05:47:57.631Z,1.27
2022-12-31T05:50:24.246Z,1.03
2022-12-31T05:52:50.935Z,0.59
2022-12-31T05:55:17.778Z,0.57
2022-12-31T05:57:44.397Z,0.18
2022-12-31T06:00:11.747Z,0.40
2022-12-31T06:02:38.425Z,0.44
2022-12-31T06:05:05.529Z,0.61
2022-12-31T06:07:32.153Z,0.86
2022-12-31T06:09:58.872Z,0.95
2022-12-31T06:12:25.567Z,1.06
2022-12-31T06:14:52.308Z,0.76
2022-12-31T06:17:19.200Z,0.67
2022-12-31T06:19:46.599Z,0.70
2022-12-31T06:22:13.192Z,0.70
2022-12-31T06:24:39.839Z,0.78
2022-12-31T06:27:06.531Z,0.53
2022-12-31T06:29:33.168Z,0.87
2022-12-31T06:32:00.354Z,0.95
2022-12-31T06:34:27.041Z,0.90
2022-12-31T06:36:53.731Z,1.05
2022-12-31T06:39:20.399Z,1.04
2022-12-31T06:41:47.016Z,1.06
2022-12-31T06:44:14.935Z,0.91
2022-12-31T06:46:41.741Z,1.20
2022-12-31T06:49:08.587Z,1.23
2022-12-31T06:51:35.191Z,1.41
2022-12-31T06:54:01.941Z,1.36
2022-12-31T06:56:34.053Z,1.49
2022-12-31T06:59:02.487Z,1.64
2022-12-31T07:01:35.104Z,1.64
2022-12-31T07:04:13.559Z,1.37
2022-12-31T07:06:53.409Z,1.60
2022-12-31T07:09:44.786Z,1.31
2022-12-31T07:12:24.840Z,1.41
2022-12-31T07:15:10.341Z,1.67
2022-12-31T07:17:55.091Z,1.81
2022-12-31T07:20:22.114Z,2.06
2022-12-31T07:22:48.988Z,2.27
2022-12-31T07:25:19.086Z,1.95
2022-12-31T07:28:07.476Z,2.00
2022-12-31T07:30:47.433Z,2.25
2022-12-31T07:33:29.801Z,2.27
2022-12-31T07:36:14.647Z,2.26
2022-12-31T07:38:51.431Z,2.39
2022-12-31T07:41:23.060Z,2.18
2022-12-31T07:44:11.606Z,2.50
2022-12-31T07:47:04.642Z,2.62
2022-12-31T07:49:31.921Z,2.88
2022-12-31T07:51:58.789Z,2.84
2022-12-31T07:54:25.497Z,2.82
2022-12-31T07:56:52.273Z,2.74
2022-12-31T07:59:55.444Z,2.83
2022-12-31T08:02:40.165Z,3.11
2022-12-31T08:05:24.655Z,3.44
2022-12-31T08:08:14.572Z,3.52
2022-12-31T08:11:07.387Z,3.86
2022-12-31T08:13:34.106Z,3.99
2022-12-31T08:16:01.695Z,4.07
2022-12-31T08:18:28.639Z,4.03
2022-12-31T08:21:17.176Z,4.10
2022-12-31T08:23:53.910Z,4.40
2022-12-31T08:26:41.633Z,4.84
2022-12-31T08:29:32.961Z,4.82
2022-12-31T08:32:08.696Z,4.89
2022-12-31T08:34:53.206Z,5.26
2022-12-31T08:37:42.123Z,5.53
2022-12-31T08:40:32.024Z,5.58
2022-12-31T08:42:58.546Z,6.05
2022-12-31T08:45:33.783Z,6.39
2022-12-31T08:48:19.063Z,6.39
2022-12-31T08:50:45.913Z,6.37
2022-12-31T08:53:12.897Z,6.49
2022-12-31T08:55:40.681Z,6.73
2022-12-31T08:58:10.314Z,6.88
2022-12-31T09:00:36.961Z,7.50
2022-12-31T09:03:16.359Z,7.28
2022-12-31T09:06:10.812Z,7.44
2022-12-31T09:08:58.929Z,7.64
2022-12-31T09:11:29.172Z,7.67
2022-12-31T09:14:04.782Z,7.66
2022-12-31T09:17:02.444Z,7.54
2022-12-31T09:19:29.171Z,7.46
2022-12-31T09:21:56.147Z,7.98
2022-12-31T09:24:23.091Z,8.37
2022-12-31T09:27:06.065Z,9.05
2022-12-31T09:29:56.145Z,9.33
2022-12-31T09:32:28.787Z,9.50
2022-12-31T09:34:58.527Z,9.02
2022-12-31T09:37:29.764Z,9.37
2022-12-31T09:39:56.746Z,9.28
2022-12-31T09:42:44.636Z,9.67
2022-12-31T09:45:35.461Z,10.08
2022-12-31T09:48:17.363Z,10.48
2022-12-31T09:51:26.756Z,10.54
2022-12-31T09:54:05.194Z,10.53
2022-12-31T09:57:25.110Z,10.82
2022-12-31T09:59:58.119Z,11.03
2022-12-31T10:02:36.802Z,11.48
2022-12-31T10:05:31.448Z,11.14
2022-12-31T10:08:01.183Z,10.98
2022-12-31T10:11:00.653Z,11.02
2022-12-31T10:13:36.715Z,11.00
2022-12-31T10:16:41.498Z,11.28
2022-12-31T10:19:30.018Z,11.32
2022-12-31T10:22:07.163Z,11.23
2022-12-31T10:24:39.668Z,11.55
2022-12-31T10:27:33.761Z,11.83
2022-12-31T10:30:17.677Z,11.55
2022-12-31T10:33:21.879Z,11.45
2022-12-31T10:35:54.405Z,11.27
2022-12-31T10:38:31.399Z,10.92
2022-12-31T10:41:00.921Z,11.39
2022-12-31T10:43:51.926Z,11.45
2022-12-31T10:46:47.613Z,11.76
2022-12-31T10:49:39.075Z,11.75
2022-12-31T10:52:30.154Z,11.90
2022-12-31T10:55:24.251Z,12.09
2022-12-31T10:58:11.726Z,11.90
2022-12-31T11:01:05.624Z,12.00
2022-12-31T11:04:09.767Z,12.01
2022-12-31T11:07:17.403Z,12.49
2022-12-31T11:09:51.913Z,12.45
2022-12-31T11:12:33.974Z,12.33
2022-12-31T11:15:03.542Z,12.44
2022-12-31T11:17:42.228Z,12.38
2022-12-31T11:20:14.914Z,12.11
2022-12-31T11:22:53.575Z,12.47
2022-12-31T11:25:46.771Z,12.55
2022-12-31T11:28:38.972Z,12.46
2022-12-31T11:31:23.380Z,12.64
2022-12-31T11:33:55.691Z,12.30
2022-12-31T11:36:40.264Z,12.74
2022-12-31T11:39:27.372Z,12.87
2022-12-31T11:42:15.665Z,12.53
2022-12-31T11:45:04.358Z,12.59
2022-12-31T11:48:32.939Z,12.78
2022-12-31T11:51:24.494Z,12.67
2022-12-31T11:53:51.043Z,12.80
2022-12-31T11:56:18.992Z,12.46
2022-12-31T11:58:48.659Z,12.44
2022-12-31T12:01:36.513Z,12.79
2022-12-31T12:04:03.344Z,12.75
2022-12-31T12:06:31.972Z,12.63
2022-12-31T12:09:11.472Z,12.38
2022-12-31T12:11:38.738Z,12.47
2022-12-31T12:14:30.514Z,12.55
2022-12-31T12:17:02.603Z,12.64
2022-12-31T12:19:32.376Z,12.82
2022-12-31T12:21:59.687Z,12.47
2022-12-31T12:24:28.900Z,12.87
2022-12-31T12:26:56.065Z,13.00
2022-12-31T12:29:22.668Z,12.76
2022-12-31T12:31:59.638Z,12.49
2022-12-31T12:34:34.282Z,12.68
2022-12-31T12:37:01.049Z,12.69
2022-12-31T12:39:32.524Z,12.80
2022-12-31T12:42:07.363Z,12.81
2022-12-31T12:44:36.002Z,12.74
2022-12-31T12:47:04.008Z,13.02
2022-12-31T12:49:45.846Z,13.20
2022-12-31T12:52:27.413Z,13.64
2022-12-31T12:55:12.593Z,14.08
2022-12-31T12:58:14.167Z,13.93
2022-12-31T13:01:14.463Z,14.10
2022-12-31T13:04:07.225Z,14.09
2022-12-31T13:06:52.354Z,14.20
2022-12-31T13:09:37.567Z,14.22
2022-12-31T13:12:12.278Z,14.13
2022-12-31T13:15:01.165Z,14.33
2022-12-31T13:17:55.068Z,13.72
2022-12-31T13:20:59.025Z,13.58
2022-12-31T13:23:36.267Z,13.72
2022-12-31T13:26:24.624Z,13.84
2022-12-31T13:28:52.320Z,13.86
2022-12-31T13:31:36.539Z,13.93
2022-12-31T13:34:06.073Z,13.97
2022-12-31T13:36:33.043Z,14.07
2022-12-31T13:39:01.132Z,14.10
2022-12-31T13:41:31.095Z,14.04
2022-12-31T13:44:35.250Z,13.95
2022-12-31T13:47:16.015Z,13.73
2022-12-31T13:49:45.648Z,13.74
2022-12-31T13:52:27.471Z,13.37
2022-12-31T13:55:22.903Z,13.04
2022-12-31T13:58:21.673Z,12.66
2022-12-31T14:00:57.610Z,12.24
2022-12-31T14:03:42.547Z,12.13
2022-12-31T14:06:31.687Z,12.13
2022-12-31T14:08:58.437Z,11.93
2022-12-31T14:11:46.107Z,11.50
2022-12-31T14:14:27.988Z,11.58
2022-12-31T14:17:26.666Z,11.25
2022-12-31T14:20:18.189Z,11.17
2022-12-31T14:23:10.911Z,11.19
2022-12-31T14:25:42.677Z,11.27
2022-12-31T14:28:15.480Z,11.28
2022-12-31T14:30:42.147Z,11.22
2022-12-31T14:33:21.027Z,11.15
2022-12-31T14:36:10.649Z,11.01
2022-12-31T14:38:49.474Z,10.88
2022-12-31T14:41:26.696Z,10.92
2022-12-31T14:44:27.195Z,10.70
2022-12-31T14:47:22.513Z,10.68
2022-12-31T14:49:49.018Z,10.61
2022-12-31T14:52:15.714Z,10.59
2022-12-31T14:54:42.414Z,10.45
2022-12-31T14:57:18.291Z,10.28
2022-12-31T15:00:23.589Z,10.28
2022-12-31T15:02:52.040Z,10.10
2022-12-31T15:05:21.080Z,10.00
2022-12-31T15:07:56.024Z,9.96
2022-12-31T15:10:39.378Z,9.92
2022-12-31T15:13:07.206Z,9.73
2022-12-31T15:16:09.142Z,9.73
2022-12-31T15:19:03.006Z,9.34
2022-12-31T15:21:51.027Z,8.77
2022-12-31T15:24:28.088Z,8.40
2022-12-31T15:26:59.257Z,7.59
2022-12-31T15:29:30.242Z,7.12
2022-12-31T15:31:58.050Z,7.07
2022-12-31T15:34:29.628Z,7.18
2022-12-31T15:36:58.178Z,7.24
2022-12-31T15:39:30.727Z,7.53
2022-12-31T15:44:57.304Z,7.48
2022-12-31T15:47:26.948Z,7.28
2022-12-31T15:49:53.602Z,6.60
2022-12-31T15:52:26.711Z,6.05
2022-12-31T15:54:55.130Z,5.70
2022-12-31T15:57:39.384Z,5.74
2022-12-31T16:00:20.602Z,5.96
2022-12-31T16:02:48.245Z,5.89
2022-12-31T16:05:22.737Z,5.79
2022-12-31T16:07:53.020Z,5.74
2022-12-31T16:10:31.452Z,5.83
2022-12-31T16:12:58.281Z,5.66
2022-12-31T16:15:30.199Z,5.54
2022-12-31T16:18:06.686Z,5.34
2022-12-31T16:20:33.965Z,5.00
2022-12-31T16:23:02.712Z,5.16
2022-12-31T16:25:31.997Z,5.16
2022-12-31T16:27:59.457Z,5.02
2022-12-31T16:30:33.163Z,4.98
2022-12-31T16:33:01.999Z,5.12
2022-12-31T16:35:32.666Z,5.17
2022-12-31T16:38:08.376Z,4.97
2022-12-31T16:40:35.096Z,4.59
2022-12-31T16:43:01.913Z,4.72
2022-12-31T16:45:35.676Z,4.59
2022-12-31T16:48:18.276Z,4.69
2022-12-31T16:50:45.751Z,4.63
2022-12-31T16:53:12.656Z,4.51
2022-12-31T16:55:39.267Z,4.72
2022-12-31T16:58:33.229Z,4.85
2022-12-31T17:01:20.764Z,4.76
2022-12-31T17:03:50.656Z,4.42
2022-12-31T17:06:18.399Z,3.98
2022-12-31T17:08:48.933Z,4.21
2022-12-31T17:11:31.649Z,4.11
2022-12-31T17:14:06.707Z,4.08
2022-12-31T17:17:03.645Z,3.72
2022-12-31T17:19:38.074Z,3.95
2022-12-31T17:22:04.790Z,3.46
2022-12-31T17:24:31.472Z,3.25
2022-12-31T17:27:03.989Z,3.47
2022-12-31T17:29:30.625Z,3.49
2022-12-31T17:32:02.178Z,3.35
2022-12-31T17:34:49.537Z,3.44
2022-12-31T17:37:22.179Z,3.67
2022-12-31T17:39:53.408Z,3.26
2022-12-31T17:42:34.577Z,3.39
2022-12-31T17:45:03.080Z,3.43
2022-12-31T17:47:34.205Z,3.53
2022-12-31T17:50:06.130Z,3.10
2022-12-31T17:52:33.632Z,3.25
2022-12-31T17:55:00.413Z,3.27
2022-12-31T17:57:27.186Z,3.12
2022-12-31T17:59:53.946Z,3.04
2022-12-31T18:02:20.832Z,2.99
2022-12-31T18:04:47.607Z,2.96
2022-12-31T18:07:14.240Z,2.98
2022-12-31T18:09:40.858Z,3.11
2022-12-31T18:12:07.531Z,3.27
2022-12-31T18:14:34.347Z,3.14
2022-12-31T18:17:01.035Z,3.17
2022-12-31T18:20:02.737Z,3.03
2022-12-31T18:22:15.934Z,3.19
2022-12-31T18:24:43.353Z,3.19
2022-12-31T18:27:17.636Z,3.23
2022-12-31T18:29:44.488Z,3.12
2022-12-31T18:32:22.671Z,2.85
2022-12-31T18:34:49.513Z,2.91
2022-12-31T18:37:21.541Z,2.89
2022-12-31T18:39:48.803Z,2.98
2022-12-31T18:42:17.241Z,2.99
2022-12-31T18:44:43.979Z,2.89
2022-12-31T18:47:14.751Z,2.76
2022-12-31T18:49:41.444Z,2.65
2022-12-31T18:52:15.190Z,2.51
2022-12-31T18:54:41.889Z,2.42
2022-12-31T18:57:12.807Z,2.26
2022-12-31T18:59:39.512Z,2.07
2022-12-31T19:02:12.127Z,2.22
2022-12-31T19:04:38.838Z,2.50
2022-12-31T19:07:05.518Z,2.78
2022-12-31T19:09:50.065Z,2.63
2022-12-31T19:12:18.828Z,2.53
2022-12-31T19:14:45.676Z,2.47
2022-12-31T19:17:12.278Z,2.19
2022-12-31T19:19:38.927Z,2.26
2022-12-31T19:22:05.633Z,2.10
2022-12-31T19:24:32.351Z,2.21
2022-12-31T19:27:00.820Z,2.36
2022-12-31T19:29:27.641Z,2.23
2022-12-31T19:31:54.455Z,2.16
2022-12-31T19:34:21.171Z,2.14
2022-12-31T19:36:49.071Z,2.22
2022-12-31T19:39:19.696Z,2.15
2022-12-31T19:41:47.542Z,1.74
2022-12-31T19:44:17.969Z,1.28
2022-12-31T19:46:44.865Z,1.39
2022-12-31T19:49:15.058Z,1.21
2022-12-31T19:51:41.854Z,1.61
2022-12-31T19:54:08.655Z,1.79
2022-12-31T19:56:35.372Z,1.82
2022-12-31T19:59:05.810Z,1.61
2022-12-31T20:01:32.537Z,1.43
2022-12-31T20:03:59.353Z,1.41
2022-12-31T20:06:26.044Z,1.37
2022-12-31T20:08:52.783Z,1.39
2022-12-31T20:11:22.912Z,1.36
2022-12-31T20:13:49.776Z,1.54
2022-12-31T20:16:17.438Z,1.27
2022-12-31T20:18:44.882Z,0.88
2022-12-31T20:21:17.731Z,0.96
2022-12-31T20:23:44.480Z,1.20
2022-12-31T20:26:11.526Z,1.33
2022-12-31T20:28:38.224Z,1.40
2022-12-31T20:31:08.836Z,1.41
2022-12-31T20:33:35.580Z,1.42
2022-12-31T20:36:03.552Z,1.04
2022-12-31T20:38:30.293Z,0.86
2022-12-31T20:41:06.281Z,1.28
2022-12-31T20:43:33.786Z,0.86
2022-12-31T20:46:07.059Z,0.72
2022-12-31T20:48:36.187Z,1.11
2022-12-31T20:51:02.922Z,0.96
2022-12-31T20:53:29.496Z,0.93
2022-12-31T20:55:56.130Z,1.30
2022-12-31T20:58:22.822Z,1.38
2022-12-31T21:00:50.398Z,1.56
2022-12-31T21:04:02.425Z,1.74
2022-12-31T21:06:06.696Z,1.79
2022-12-31T21:08:35.235Z,1.52
2022-12-31T21:11:02.646Z,1.33
2022-12-31T21:13:29.316Z,0.78
2022-12-31T21:15:55.995Z,0.62
2022-12-31T21:18:22.760Z,0.63
2022-12-31T21:20:50.376Z,0.80
2022-12-31T21:23:17.170Z,0.95
2022-12-31T21:25:44.085Z,0.74
2022-12-31T21:28:11.179Z,0.74
2022-12-31T21:30:41.400Z,0.52
2022-12-31T21:33:08.028Z,0.62
2022-12-31T21:35:45.812Z,0.70
2022-12-31T21:38:18.469Z,0.65
2022-12-31T21:40:45.219Z,0.67
2022-12-31T21:43:12.506Z,0.94
2022-12-31T21:45:39.217Z,0.69
2022-12-31T21:48:22.090Z,1.00
2022-12-31T21:50:53.383Z,0.98
2022-12-31T21:53:27.949Z,1.03
2022-12-31T21:56:11.960Z,0.89
2022-12-31T21:58:43.170Z,0.91
2022-12-31T22:01:33.890Z,0.90
2022-12-31T22:04:00.660Z,0.93
2022-12-31T22:06:27.334Z,0.75
2022-12-31T22:08:55.074Z,0.77
2022-12-31T22:11:23.291Z,0.68
2022-12-31T22:13:50.078Z,0.74
2022-12-31T22:16:17.251Z,0.86
2022-12-31T22:18:44.269Z,0.97
2022-12-31T22:21:21.173Z,0.18
2022-12-31T22:23:48.716Z,0.28
2022-12-31T22:26:16.162Z,0.52
2022-12-31T22:28:43.180Z,0.62
2022-12-31T22:31:14.293Z,0.43
2022-12-31T22:33:41.407Z,0.56
2022-12-31T22:36:10.849Z,0.18
2022-12-31T22:38:37.928Z,0.20
2022-12-31T22:41:09.911Z,0.14
2022-12-31T22:43:38.797Z,0.03
2022-12-31T22:46:07.222Z,-0.16
2022-12-31T22:48:33.940Z,-0.12
2022-12-31T22:51:00.587Z,-0.08
2022-12-31T22:53:27.199Z,0.16
2022-12-31T22:55:54.810Z,0.21
2022-12-31T22:58:22.637Z,0.31
2022-12-31T23:00:49.440Z,0.49
2022-12-31T23:03:16.152Z,0.57
2022-12-31T23:05:43.098Z,0.45
2022-12-31T23:08:18.738Z,0.56
2022-12-31T23:11:05.494Z,0.72
2022-12-31T23:13:55.597Z,0.52
2022-12-31T23:16:41.053Z,0.47
2022-12-31T23:19:26.242Z,0.47
2022-12-31T23:22:11.332Z,0.41
2022-12-31T23:24:38.415Z,0.40
2022-12-31T23:27:05.329Z,0.13
2022-12-31T23:29:32.030Z,-0.31
2022-12-31T23:31:58.668Z,-0.70
2022-12-31T23:34:25.455Z,-0.62
2022-12-31T23:36:52.143Z,-0.74
2022-12-31T23:39:18.819Z,-0.25
2022-12-31T23:41:45.477Z,-0.06
2022-12-31T23:44:12.378Z,-0.03
2022-12-31T23:46:40.388Z,0.01
2022-12-31T23:49:07.055Z,-0.18
2022-12-31T23:51:33.669Z,-0.36
2022-12-31T23:54:00.704Z,-0.53
2022-12-31T23:56:27.437Z,-0.49
2022-12-31T23:58:57.586Z,-0.11
